sensor_id;sensor_type;location;lat;lon;timestamp;P1;durP1;ratioP1;P2;durP2;ratioP2
19778;SDS011;10049;59.306;18.090;2023-04-06T00:01:46;2.93;;;1.37;;
19778;SDS011;10049;59.306;18.090;2023-04-06T00:04:15;2.23;;;1.30;;
19778;SDS011;10049;59.306;18.090;2023-04-06T00:06:47;1.60;;;1.20;;
19778;SDS011;10049;59.306;18.090;2023-04-06T00:09:17;3.43;;;1.30;;
19778;SDS011;10049;59.306;18.090;2023-04-06T00:11:47;3.83;;;1.30;;
19778;SDS011;10049;59.306;18.090;2023-04-06T00:14:17;2.87;;;1.40;;
19778;SDS011;10049;59.306;18.090;2023-04-06T00:16:47;3.53;;;1.33;;
19778;SDS011;10049;59.306;18.090;2023-04-06T00:19:20;3.47;;;1.70;;
19778;SDS011;10049;59.306;18.090;2023-04-06T00:21:48;1.80;;;1.23;;
19778;SDS011;10049;59.306;18.090;2023-04-06T00:24:21;2.63;;;1.53;;
19778;SDS011;10049;59.306;18.090;2023-04-06T00:26:50;1.57;;;1.23;;
19778;SDS011;10049;59.306;18.090;2023-04-06T00:29:21;2.10;;;1.50;;
19778;SDS011;10049;59.306;18.090;2023-04-06T00:34:39;2.07;;;1.37;;
19778;SDS011;10049;59.306;18.090;2023-04-06T00:37:06;1.30;;;1.20;;
19778;SDS011;10049;59.306;18.090;2023-04-06T00:39:35;2.77;;;1.23;;
19778;SDS011;10049;59.306;18.090;2023-04-06T00:42:07;2.70;;;1.47;;
19778;SDS011;10049;59.306;18.090;2023-04-06T00:44:50;3.43;;;1.50;;
19778;SDS011;10049;59.306;18.090;2023-04-06T00:47:24;2.50;;;1.47;;
19778;SDS011;10049;59.306;18.090;2023-04-06T00:49:59;3.03;;;1.70;;
19778;SDS011;10049;59.306;18.090;2023-04-06T00:52:30;3.40;;;1.50;;
19778;SDS011;10049;59.306;18.090;2023-04-06T00:54:59;2.90;;;1.67;;
19778;SDS011;10049;59.306;18.090;2023-04-06T00:57:30;2.90;;;1.67;;
19778;SDS011;10049;59.306;18.090;2023-04-06T01:00:02;3.33;;;1.37;;
19778;SDS011;10049;59.306;18.090;2023-04-06T01:02:32;5.47;;;1.83;;
19778;SDS011;10049;59.306;18.090;2023-04-06T01:05:15;3.27;;;1.70;;
19778;SDS011;10049;59.306;18.090;2023-04-06T01:07:58;4.83;;;1.30;;
19778;SDS011;10049;59.306;18.090;2023-04-06T01:10:27;3.57;;;1.47;;
19778;SDS011;10049;59.306;18.090;2023-04-06T01:12:55;2.47;;;1.50;;
19778;SDS011;10049;59.306;18.090;2023-04-06T01:15:26;2.53;;;1.80;;
19778;SDS011;10049;59.306;18.090;2023-04-06T01:18:04;3.30;;;1.60;;
19778;SDS011;10049;59.306;18.090;2023-04-06T01:20:35;3.47;;;1.70;;
19778;SDS011;10049;59.306;18.090;2023-04-06T01:23:05;3.20;;;1.80;;
19778;SDS011;10049;59.306;18.090;2023-04-06T01:25:37;2.63;;;1.47;;
19778;SDS011;10049;59.306;18.090;2023-04-06T01:28:11;2.67;;;1.50;;
19778;SDS011;10049;59.306;18.090;2023-04-06T01:30:41;1.97;;;1.27;;
19778;SDS011;10049;59.306;18.090;2023-04-06T01:33:11;2.60;;;1.47;;
19778;SDS011;10049;59.306;18.090;2023-04-06T01:35:39;4.90;;;1.70;;
19778;SDS011;10049;59.306;18.090;2023-04-06T01:38:20;3.57;;;1.80;;
19778;SDS011;10049;59.306;18.090;2023-04-06T01:40:50;2.73;;;1.57;;
19778;SDS011;10049;59.306;18.090;2023-04-06T01:43:19;2.77;;;1.43;;
19778;SDS011;10049;59.306;18.090;2023-04-06T01:45:48;4.87;;;1.67;;
19778;SDS011;10049;59.306;18.090;2023-04-06T01:48:16;4.77;;;1.70;;
19778;SDS011;10049;59.306;18.090;2023-04-06T01:50:45;2.97;;;1.60;;
19778;SDS011;10049;59.306;18.090;2023-04-06T01:53:14;1.87;;;1.37;;
19778;SDS011;10049;59.306;18.090;2023-04-06T01:55:57;3.97;;;1.77;;
19778;SDS011;10049;59.306;18.090;2023-04-06T01:58:26;3.03;;;1.50;;
19778;SDS011;10049;59.306;18.090;2023-04-06T02:00:55;2.50;;;1.47;;
19778;SDS011;10049;59.306;18.090;2023-04-06T02:03:27;2.00;;;1.60;;
19778;SDS011;10049;59.306;18.090;2023-04-06T02:05:55;3.20;;;1.50;;
19778;SDS011;10049;59.306;18.090;2023-04-06T02:08:25;2.80;;;1.43;;
19778;SDS011;10049;59.306;18.090;2023-04-06T02:10:58;1.20;;;1.10;;
19778;SDS011;10049;59.306;18.090;2023-04-06T02:13:28;3.30;;;1.43;;
19778;SDS011;10049;59.306;18.090;2023-04-06T02:15:59;1.50;;;1.20;;
19778;SDS011;10049;59.306;18.090;2023-04-06T02:18:27;2.70;;;1.30;;
19778;SDS011;10049;59.306;18.090;2023-04-06T02:21:14;2.43;;;1.27;;
19778;SDS011;10049;59.306;18.090;2023-04-06T02:23:45;2.33;;;1.50;;
19778;SDS011;10049;59.306;18.090;2023-04-06T02:26:27;2.90;;;1.37;;
19778;SDS011;10049;59.306;18.090;2023-04-06T02:29:04;4.53;;;1.40;;
19778;SDS011;10049;59.306;18.090;2023-04-06T02:31:32;2.40;;;1.23;;
19778;SDS011;10049;59.306;18.090;2023-04-06T02:34:01;1.63;;;1.40;;
19778;SDS011;10049;59.306;18.090;2023-04-06T02:36:29;2.60;;;1.33;;
19778;SDS011;10049;59.306;18.090;2023-04-06T02:38:57;1.30;;;1.20;;
19778;SDS011;10049;59.306;18.090;2023-04-06T02:41:34;2.30;;;1.20;;
19778;SDS011;10049;59.306;18.090;2023-04-06T02:44:02;1.60;;;1.30;;
19778;SDS011;10049;59.306;18.090;2023-04-06T02:46:31;1.70;;;1.00;;
19778;SDS011;10049;59.306;18.090;2023-04-06T02:48:59;3.43;;;1.00;;
19778;SDS011;10049;59.306;18.090;2023-04-06T02:51:27;3.13;;;1.20;;
19778;SDS011;10049;59.306;18.090;2023-04-06T02:53:55;2.60;;;1.13;;
19778;SDS011;10049;59.306;18.090;2023-04-06T02:56:23;2.10;;;1.30;;
19778;SDS011;10049;59.306;18.090;2023-04-06T02:58:54;1.43;;;1.17;;
19778;SDS011;10049;59.306;18.090;2023-04-06T03:01:25;1.97;;;1.10;;
19778;SDS011;10049;59.306;18.090;2023-04-06T03:03:55;1.17;;;1.07;;
19778;SDS011;10049;59.306;18.090;2023-04-06T03:06:24;1.70;;;1.20;;
19778;SDS011;10049;59.306;18.090;2023-04-06T03:08:52;1.97;;;1.10;;
19778;SDS011;10049;59.306;18.090;2023-04-06T03:11:20;2.17;;;1.20;;
19778;SDS011;10049;59.306;18.090;2023-04-06T03:13:49;1.20;;;1.10;;
19778;SDS011;10049;59.306;18.090;2023-04-06T03:16:21;2.80;;;1.40;;
19778;SDS011;10049;59.306;18.090;2023-04-06T03:18:52;1.50;;;1.30;;
19778;SDS011;10049;59.306;18.090;2023-04-06T03:21:20;4.13;;;1.37;;
19778;SDS011;10049;59.306;18.090;2023-04-06T03:23:53;1.40;;;1.20;;
19778;SDS011;10049;59.306;18.090;2023-04-06T03:26:20;1.40;;;1.10;;
19778;SDS011;10049;59.306;18.090;2023-04-06T03:28:48;1.07;;;0.90;;
19778;SDS011;10049;59.306;18.090;2023-04-06T03:31:18;1.90;;;1.10;;
19778;SDS011;10049;59.306;18.090;2023-04-06T03:33:50;2.40;;;1.00;;
19778;SDS011;10049;59.306;18.090;2023-04-06T03:36:21;2.03;;;1.10;;
19778;SDS011;10049;59.306;18.090;2023-04-06T03:38:54;1.90;;;1.30;;
19778;SDS011;10049;59.306;18.090;2023-04-06T03:41:25;2.03;;;1.10;;
19778;SDS011;10049;59.306;18.090;2023-04-06T03:43:54;2.10;;;1.20;;
19778;SDS011;10049;59.306;18.090;2023-04-06T03:46:28;2.57;;;1.20;;
19778;SDS011;10049;59.306;18.090;2023-04-06T03:48:56;1.53;;;1.07;;
19778;SDS011;10049;59.306;18.090;2023-04-06T03:51:33;1.40;;;1.07;;
19778;SDS011;10049;59.306;18.090;2023-04-06T03:54:00;1.33;;;1.07;;
19778;SDS011;10049;59.306;18.090;2023-04-06T03:56:29;2.10;;;1.10;;
19778;SDS011;10049;59.306;18.090;2023-04-06T03:58:57;1.23;;;1.00;;
19778;SDS011;10049;59.306;18.090;2023-04-06T04:01:34;1.97;;;1.13;;
19778;SDS011;10049;59.306;18.090;2023-04-06T04:04:04;1.43;;;1.20;;
19778;SDS011;10049;59.306;18.090;2023-04-06T04:06:33;1.97;;;1.10;;
19778;SDS011;10049;59.306;18.090;2023-04-06T04:09:07;1.17;;;1.00;;
19778;SDS011;10049;59.306;18.090;2023-04-06T04:11:36;1.57;;;1.00;;
19778;SDS011;10049;59.306;18.090;2023-04-06T04:14:05;1.63;;;1.03;;
19778;SDS011;10049;59.306;18.090;2023-04-06T04:16:54;0.93;;;0.80;;
19778;SDS011;10049;59.306;18.090;2023-04-06T04:19:23;2.03;;;0.90;;
19778;SDS011;10049;59.306;18.090;2023-04-06T04:21:52;3.93;;;1.00;;
19778;SDS011;10049;59.306;18.090;2023-04-06T04:24:20;1.83;;;1.23;;
19778;SDS011;10049;59.306;18.090;2023-04-06T04:26:50;2.03;;;1.00;;
19778;SDS011;10049;59.306;18.090;2023-04-06T04:29:22;1.20;;;1.00;;
19778;SDS011;10049;59.306;18.090;2023-04-06T04:31:59;2.37;;;1.20;;
19778;SDS011;10049;59.306;18.090;2023-04-06T04:34:26;4.00;;;0.90;;
19778;SDS011;10049;59.306;18.090;2023-04-06T04:37:08;1.63;;;1.00;;
19778;SDS011;10049;59.306;18.090;2023-04-06T04:39:40;1.07;;;0.97;;
19778;SDS011;10049;59.306;18.090;2023-04-06T04:42:11;1.27;;;1.00;;
19778;SDS011;10049;59.306;18.090;2023-04-06T04:44:42;1.10;;;0.90;;
19778;SDS011;10049;59.306;18.090;2023-04-06T04:47:24;1.20;;;0.90;;
19778;SDS011;10049;59.306;18.090;2023-04-06T04:49:58;1.20;;;1.00;;
19778;SDS011;10049;59.306;18.090;2023-04-06T04:52:26;1.23;;;1.10;;
19778;SDS011;10049;59.306;18.090;2023-04-06T04:54:57;1.50;;;1.10;;
19778;SDS011;10049;59.306;18.090;2023-04-06T04:57:28;1.40;;;1.10;;
19778;SDS011;10049;59.306;18.090;2023-04-06T04:59:56;2.57;;;1.10;;
19778;SDS011;10049;59.306;18.090;2023-04-06T05:02:38;1.47;;;0.93;;
19778;SDS011;10049;59.306;18.090;2023-04-06T05:05:10;2.50;;;1.00;;
19778;SDS011;10049;59.306;18.090;2023-04-06T05:07:39;0.77;;;0.70;;
19778;SDS011;10049;59.306;18.090;2023-04-06T05:10:07;1.00;;;0.90;;
19778;SDS011;10049;59.306;18.090;2023-04-06T05:12:38;1.70;;;1.00;;
19778;SDS011;10049;59.306;18.090;2023-04-06T05:15:06;1.03;;;0.93;;
19778;SDS011;10049;59.306;18.090;2023-04-06T05:17:40;1.40;;;1.00;;
19778;SDS011;10049;59.306;18.090;2023-04-06T05:20:15;1.17;;;0.80;;
19778;SDS011;10049;59.306;18.090;2023-04-06T05:22:44;2.60;;;1.10;;
19778;SDS011;10049;59.306;18.090;2023-04-06T05:25:23;0.87;;;0.80;;
19778;SDS011;10049;59.306;18.090;2023-04-06T05:27:51;1.30;;;1.00;;
19778;SDS011;10049;59.306;18.090;2023-04-06T05:30:20;0.80;;;0.80;;
19778;SDS011;10049;59.306;18.090;2023-04-06T05:32:54;1.00;;;0.90;;
19778;SDS011;10049;59.306;18.090;2023-04-06T05:35:24;0.80;;;0.80;;
19778;SDS011;10049;59.306;18.090;2023-04-06T05:37:52;0.70;;;0.70;;
19778;SDS011;10049;59.306;18.090;2023-04-06T05:40:23;2.33;;;0.90;;
19778;SDS011;10049;59.306;18.090;2023-04-06T05:42:55;1.03;;;0.80;;
19778;SDS011;10049;59.306;18.090;2023-04-06T05:45:23;1.20;;;0.80;;
19778;SDS011;10049;59.306;18.090;2023-04-06T05:47:59;1.00;;;0.70;;
19778;SDS011;10049;59.306;18.090;2023-04-06T05:50:27;1.10;;;0.80;;
19778;SDS011;10049;59.306;18.090;2023-04-06T05:52:57;1.73;;;0.90;;
19778;SDS011;10049;59.306;18.090;2023-04-06T05:55:26;1.15;;;0.77;;
19778;SDS011;10049;59.306;18.090;2023-04-06T05:58:07;1.23;;;0.80;;
19778;SDS011;10049;59.306;18.090;2023-04-06T06:00:37;0.83;;;0.80;;
19778;SDS011;10049;59.306;18.090;2023-04-06T06:03:09;0.73;;;0.73;;
19778;SDS011;10049;59.306;18.090;2023-04-06T06:05:51;0.80;;;0.70;;
19778;SDS011;10049;59.306;18.090;2023-04-06T06:08:25;0.27;;;0.27;;
19778;SDS011;10049;59.306;18.090;2023-04-06T06:10:53;1.30;;;0.80;;
19778;SDS011;10049;59.306;18.090;2023-04-06T06:13:21;1.03;;;0.70;;
19778;SDS011;10049;59.306;18.090;2023-04-06T06:16:04;1.00;;;0.70;;
19778;SDS011;10049;59.306;18.090;2023-04-06T06:18:36;1.47;;;0.90;;
19778;SDS011;10049;59.306;18.090;2023-04-06T06:21:05;2.87;;;0.43;;
19778;SDS011;10049;59.306;18.090;2023-04-06T06:23:34;1.37;;;0.70;;
19778;SDS011;10049;59.306;18.090;2023-04-06T06:26:02;1.83;;;1.10;;
19778;SDS011;10049;59.306;18.090;2023-04-06T06:28:33;0.80;;;0.80;;
19778;SDS011;10049;59.306;18.090;2023-04-06T06:31:02;1.20;;;0.90;;
19778;SDS011;10049;59.306;18.090;2023-04-06T06:33:35;2.83;;;0.90;;
19778;SDS011;10049;59.306;18.090;2023-04-06T06:36:10;2.43;;;1.20;;
19778;SDS011;10049;59.306;18.090;2023-04-06T06:38:43;0.63;;;0.60;;
19778;SDS011;10049;59.306;18.090;2023-04-06T06:41:12;0.98;;;0.60;;
19778;SDS011;10049;59.306;18.090;2023-04-06T06:43:47;1.00;;;0.77;;
19778;SDS011;10049;59.306;18.090;2023-04-06T06:46:15;1.23;;;0.80;;
19778;SDS011;10049;59.306;18.090;2023-04-06T06:48:51;0.80;;;0.80;;
19778;SDS011;10049;59.306;18.090;2023-04-06T06:51:24;1.52;;;0.98;;
19778;SDS011;10049;59.306;18.090;2023-04-06T06:54:06;0.65;;;0.65;;
19778;SDS011;10049;59.306;18.090;2023-04-06T06:56:34;0.80;;;0.80;;
19778;SDS011;10049;59.306;18.090;2023-04-06T06:59:05;0.63;;;0.60;;
19778;SDS011;10049;59.306;18.090;2023-04-06T07:01:36;1.20;;;0.85;;
19778;SDS011;10049;59.306;18.090;2023-04-06T07:04:08;2.05;;;0.98;;
19778;SDS011;10049;59.306;18.090;2023-04-06T07:06:47;0.68;;;0.60;;
19778;SDS011;10049;59.306;18.090;2023-04-06T07:09:19;0.40;;;0.40;;
19778;SDS011;10049;59.306;18.090;2023-04-06T07:11:47;1.70;;;0.90;;
19778;SDS011;10049;59.306;18.090;2023-04-06T07:14:17;1.40;;;0.80;;
19778;SDS011;10049;59.306;18.090;2023-04-06T07:16:46;0.60;;;0.60;;
19778;SDS011;10049;59.306;18.090;2023-04-06T07:19:20;0.85;;;0.70;;
19778;SDS011;10049;59.306;18.090;2023-04-06T07:21:48;0.73;;;0.60;;
19778;SDS011;10049;59.306;18.090;2023-04-06T07:24:21;0.60;;;0.60;;
19778;SDS011;10049;59.306;18.090;2023-04-06T07:26:53;0.60;;;0.50;;
19778;SDS011;10049;59.306;18.090;2023-04-06T07:29:21;0.47;;;0.47;;
19778;SDS011;10049;59.306;18.090;2023-04-06T07:31:54;1.02;;;0.70;;
19778;SDS011;10049;59.306;18.090;2023-04-06T07:34:31;0.82;;;0.70;;
19778;SDS011;10049;59.306;18.090;2023-04-06T07:37:02;1.38;;;0.50;;
19778;SDS011;10049;59.306;18.090;2023-04-06T07:39:33;0.68;;;0.55;;
19778;SDS011;10049;59.306;18.090;2023-04-06T07:42:04;0.60;;;0.40;;
19778;SDS011;10049;59.306;18.090;2023-04-06T07:44:34;0.68;;;0.60;;
19778;SDS011;10049;59.306;18.090;2023-04-06T07:47:10;0.50;;;0.50;;
19778;SDS011;10049;59.306;18.090;2023-04-06T07:49:43;0.50;;;0.50;;
19778;SDS011;10049;59.306;18.090;2023-04-06T07:52:21;0.70;;;0.60;;
19778;SDS011;10049;59.306;18.090;2023-04-06T07:54:50;2.30;;;0.70;;
19778;SDS011;10049;59.306;18.090;2023-04-06T07:57:19;0.70;;;0.60;;
19778;SDS011;10049;59.306;18.090;2023-04-06T07:59:49;0.50;;;0.50;;
19778;SDS011;10049;59.306;18.090;2023-04-06T08:02:18;1.05;;;0.55;;
19778;SDS011;10049;59.306;18.090;2023-04-06T08:04:48;0.60;;;0.60;;
19778;SDS011;10049;59.306;18.090;2023-04-06T08:07:18;0.50;;;0.50;;
19778;SDS011;10049;59.306;18.090;2023-04-06T08:09:51;0.88;;;0.45;;
19778;SDS011;10049;59.306;18.090;2023-04-06T08:12:23;0.82;;;0.50;;
19778;SDS011;10049;59.306;18.090;2023-04-06T08:14:52;0.52;;;0.52;;
19778;SDS011;10049;59.306;18.090;2023-04-06T08:17:22;0.80;;;0.40;;
19778;SDS011;10049;59.306;18.090;2023-04-06T08:19:54;0.75;;;0.50;;
19778;SDS011;10049;59.306;18.090;2023-04-06T08:22:22;1.65;;;0.73;;
19778;SDS011;10049;59.306;18.090;2023-04-06T08:24:52;0.50;;;0.50;;
19778;SDS011;10049;59.306;18.090;2023-04-06T08:27:20;0.85;;;0.50;;
19778;SDS011;10049;59.306;18.090;2023-04-06T08:29:49;1.30;;;0.63;;
19778;SDS011;10049;59.306;18.090;2023-04-06T08:32:17;0.52;;;0.50;;
19778;SDS011;10049;59.306;18.090;2023-04-06T08:34:45;0.52;;;0.40;;
19778;SDS011;10049;59.306;18.090;2023-04-06T08:37:16;0.43;;;0.43;;
19778;SDS011;10049;59.306;18.090;2023-04-06T08:39:44;0.50;;;0.50;;
19778;SDS011;10049;59.306;18.090;2023-04-06T08:42:12;0.55;;;0.40;;
19778;SDS011;10049;59.306;18.090;2023-04-06T08:44:43;0.60;;;0.40;;
19778;SDS011;10049;59.306;18.090;2023-04-06T08:47:13;0.60;;;0.40;;
19778;SDS011;10049;59.306;18.090;2023-04-06T08:49:42;3.33;;;0.45;;
19778;SDS011;10049;59.306;18.090;2023-04-06T08:52:11;0.95;;;0.50;;
19778;SDS011;10049;59.306;18.090;2023-04-06T08:54:45;0.40;;;0.40;;
19778;SDS011;10049;59.306;18.090;2023-04-06T08:57:16;1.17;;;0.45;;
19778;SDS011;10049;59.306;18.090;2023-04-06T08:59:46;0.35;;;0.35;;
19778;SDS011;10049;59.306;18.090;2023-04-06T09:02:15;0.47;;;0.43;;
19778;SDS011;10049;59.306;18.090;2023-04-06T09:04:44;0.40;;;0.40;;
19778;SDS011;10049;59.306;18.090;2023-04-06T09:07:16;0.52;;;0.50;;
19778;SDS011;10049;59.306;18.090;2023-04-06T09:09:46;1.48;;;0.60;;
19778;SDS011;10049;59.306;18.090;2023-04-06T09:12:25;0.50;;;0.50;;
19778;SDS011;10049;59.306;18.090;2023-04-06T09:14:53;0.57;;;0.50;;
19778;SDS011;10049;59.306;18.090;2023-04-06T09:17:22;1.08;;;0.60;;
19778;SDS011;10049;59.306;18.090;2023-04-06T09:19:51;0.40;;;0.40;;
19778;SDS011;10049;59.306;18.090;2023-04-06T09:22:20;0.50;;;0.40;;
19778;SDS011;10049;59.306;18.090;2023-04-06T09:24:55;0.60;;;0.40;;
19778;SDS011;10049;59.306;18.090;2023-04-06T09:27:30;0.85;;;0.55;;
19778;SDS011;10049;59.306;18.090;2023-04-06T09:30:07;1.27;;;0.60;;
19778;SDS011;10049;59.306;18.090;2023-04-06T09:32:48;0.40;;;0.40;;
19778;SDS011;10049;59.306;18.090;2023-04-06T09:35:16;0.77;;;0.50;;
19778;SDS011;10049;59.306;18.090;2023-04-06T09:37:47;1.88;;;0.52;;
19778;SDS011;10049;59.306;18.090;2023-04-06T09:40:18;0.70;;;0.50;;
19778;SDS011;10049;59.306;18.090;2023-04-06T09:42:48;0.75;;;0.50;;
19778;SDS011;10049;59.306;18.090;2023-04-06T09:45:18;2.72;;;0.60;;
19778;SDS011;10049;59.306;18.090;2023-04-06T09:47:46;0.90;;;0.60;;
19778;SDS011;10049;59.306;18.090;2023-04-06T09:50:15;3.55;;;1.00;;
19778;SDS011;10049;59.306;18.090;2023-04-06T09:52:47;4.75;;;0.93;;
19778;SDS011;10049;59.306;18.090;2023-04-06T09:55:27;0.95;;;0.70;;
19778;SDS011;10049;59.306;18.090;2023-04-06T09:58:01;0.70;;;0.50;;
19778;SDS011;10049;59.306;18.090;2023-04-06T10:00:34;0.82;;;0.47;;
19778;SDS011;10049;59.306;18.090;2023-04-06T10:03:13;1.23;;;0.60;;
19778;SDS011;10049;59.306;18.090;2023-04-06T10:05:43;0.50;;;0.50;;
19778;SDS011;10049;59.306;18.090;2023-04-06T10:08:14;0.93;;;0.55;;
19778;SDS011;10049;59.306;18.090;2023-04-06T10:10:44;0.60;;;0.50;;
19778;SDS011;10049;59.306;18.090;2023-04-06T10:13:14;0.88;;;0.70;;
19778;SDS011;10049;59.306;18.090;2023-04-06T10:15:42;2.28;;;0.60;;
19778;SDS011;10049;59.306;18.090;2023-04-06T10:18:11;0.57;;;0.50;;
19778;SDS011;10049;59.306;18.090;2023-04-06T10:20:53;2.80;;;0.60;;
19778;SDS011;10049;59.306;18.090;2023-04-06T10:23:26;0.50;;;0.50;;
19778;SDS011;10049;59.306;18.090;2023-04-06T10:26:01;1.95;;;0.60;;
19778;SDS011;10049;59.306;18.090;2023-04-06T10:28:35;0.50;;;0.50;;
19778;SDS011;10049;59.306;18.090;2023-04-06T10:31:05;1.48;;;0.60;;
19778;SDS011;10049;59.306;18.090;2023-04-06T10:33:35;0.55;;;0.55;;
19778;SDS011;10049;59.306;18.090;2023-04-06T10:36:09;1.85;;;0.70;;
19778;SDS011;10049;59.306;18.090;2023-04-06T10:38:39;0.55;;;0.50;;
19778;SDS011;10049;59.306;18.090;2023-04-06T10:41:17;0.52;;;0.52;;
19778;SDS011;10049;59.306;18.090;2023-04-06T10:43:54;0.90;;;0.50;;
19778;SDS011;10049;59.306;18.090;2023-04-06T10:46:24;0.40;;;0.40;;
19778;SDS011;10049;59.306;18.090;2023-04-06T10:48:54;0.52;;;0.38;;
19778;SDS011;10049;59.306;18.090;2023-04-06T10:51:31;0.40;;;0.40;;
19778;SDS011;10049;59.306;18.090;2023-04-06T10:53:59;1.75;;;0.60;;
19778;SDS011;10049;59.306;18.090;2023-04-06T10:56:33;0.65;;;0.40;;
19778;SDS011;10049;59.306;18.090;2023-04-06T10:59:20;3.03;;;0.55;;
19778;SDS011;10049;59.306;18.090;2023-04-06T11:01:51;2.22;;;0.57;;
19778;SDS011;10049;59.306;18.090;2023-04-06T11:04:24;0.65;;;0.40;;
19778;SDS011;10049;59.306;18.090;2023-04-06T11:06:54;0.40;;;0.40;;
19778;SDS011;10049;59.306;18.090;2023-04-06T11:09:23;0.50;;;0.50;;
19778;SDS011;10049;59.306;18.090;2023-04-06T11:11:54;0.20;;;0.20;;
19778;SDS011;10049;59.306;18.090;2023-04-06T11:14:22;4.68;;;0.77;;
19778;SDS011;10049;59.306;18.090;2023-04-06T11:16:51;0.38;;;0.38;;
19778;SDS011;10049;59.306;18.090;2023-04-06T11:19:20;0.93;;;0.50;;
19778;SDS011;10049;59.306;18.090;2023-04-06T11:21:49;0.30;;;0.30;;
19778;SDS011;10049;59.306;18.090;2023-04-06T11:24:25;1.02;;;0.60;;
19778;SDS011;10049;59.306;18.090;2023-04-06T11:26:58;0.20;;;0.20;;
19778;SDS011;10049;59.306;18.090;2023-04-06T11:29:30;0.40;;;0.40;;
19778;SDS011;10049;59.306;18.090;2023-04-06T11:32:02;0.40;;;0.40;;
19778;SDS011;10049;59.306;18.090;2023-04-06T11:34:32;0.40;;;0.40;;
19778;SDS011;10049;59.306;18.090;2023-04-06T11:37:03;1.45;;;0.50;;
19778;SDS011;10049;59.306;18.090;2023-04-06T11:39:32;0.50;;;0.50;;
19778;SDS011;10049;59.306;18.090;2023-04-06T11:42:11;0.55;;;0.40;;
19778;SDS011;10049;59.306;18.090;2023-04-06T11:45:01;0.50;;;0.50;;
19778;SDS011;10049;59.306;18.090;2023-04-06T11:47:44;0.50;;;0.43;;
19778;SDS011;10049;59.306;18.090;2023-04-06T11:50:17;1.10;;;0.52;;
19778;SDS011;10049;59.306;18.090;2023-04-06T11:52:48;1.13;;;0.68;;
19778;SDS011;10049;59.306;18.090;2023-04-06T11:55:36;1.30;;;0.60;;
19778;SDS011;10049;59.306;18.090;2023-04-06T11:58:19;0.57;;;0.45;;
19778;SDS011;10049;59.306;18.090;2023-04-06T12:01:08;0.40;;;0.40;;
19778;SDS011;10049;59.306;18.090;2023-04-06T12:03:40;1.67;;;0.60;;
19778;SDS011;10049;59.306;18.090;2023-04-06T12:06:11;0.20;;;0.20;;
19778;SDS011;10049;59.306;18.090;2023-04-06T12:08:41;0.57;;;0.40;;
19778;SDS011;10049;59.306;18.090;2023-04-06T12:11:16;0.65;;;0.60;;
19778;SDS011;10049;59.306;18.090;2023-04-06T12:13:53;0.75;;;0.50;;
19778;SDS011;10049;59.306;18.090;2023-04-06T12:16:24;2.15;;;0.30;;
19778;SDS011;10049;59.306;18.090;2023-04-06T12:18:59;0.35;;;0.35;;
19778;SDS011;10049;59.306;18.090;2023-04-06T12:21:30;0.43;;;0.40;;
19778;SDS011;10049;59.306;18.090;2023-04-06T12:24:06;0.30;;;0.30;;
19778;SDS011;10049;59.306;18.090;2023-04-06T12:26:40;0.20;;;0.20;;
19778;SDS011;10049;59.306;18.090;2023-04-06T12:29:17;0.40;;;0.40;;
19778;SDS011;10049;59.306;18.090;2023-04-06T12:31:50;0.52;;;0.52;;
19778;SDS011;10049;59.306;18.090;2023-04-06T12:34:28;0.25;;;0.25;;
19778;SDS011;10049;59.306;18.090;2023-04-06T12:37:09;0.30;;;0.30;;
19778;SDS011;10049;59.306;18.090;2023-04-06T12:39:40;0.60;;;0.40;;
19778;SDS011;10049;59.306;18.090;2023-04-06T12:42:18;0.40;;;0.40;;
19778;SDS011;10049;59.306;18.090;2023-04-06T12:44:50;0.68;;;0.57;;
19778;SDS011;10049;59.306;18.090;2023-04-06T12:47:18;0.50;;;0.50;;
19778;SDS011;10049;59.306;18.090;2023-04-06T12:49:48;1.05;;;0.50;;
19778;SDS011;10049;59.306;18.090;2023-04-06T12:52:17;0.40;;;0.40;;
19778;SDS011;10049;59.306;18.090;2023-04-06T12:54:48;0.45;;;0.45;;
19778;SDS011;10049;59.306;18.090;2023-04-06T12:57:33;1.35;;;0.40;;
19778;SDS011;10049;59.306;18.090;2023-04-06T13:00:09;0.20;;;0.20;;
19778;SDS011;10049;59.306;18.090;2023-04-06T13:02:41;0.57;;;0.47;;
19778;SDS011;10049;59.306;18.090;2023-04-06T13:05:13;0.55;;;0.30;;
19778;SDS011;10049;59.306;18.090;2023-04-06T13:07:44;0.55;;;0.43;;
19778;SDS011;10049;59.306;18.090;2023-04-06T13:10:13;0.30;;;0.30;;
19778;SDS011;10049;59.306;18.090;2023-04-06T13:12:43;1.77;;;0.68;;
19778;SDS011;10049;59.306;18.090;2023-04-06T13:15:14;0.65;;;0.52;;
19778;SDS011;10049;59.306;18.090;2023-04-06T13:17:43;0.40;;;0.40;;
19778;SDS011;10049;59.306;18.090;2023-04-06T13:20:14;0.40;;;0.40;;
19778;SDS011;10049;59.306;18.090;2023-04-06T13:22:44;0.30;;;0.30;;
19778;SDS011;10049;59.306;18.090;2023-04-06T13:25:14;0.30;;;0.30;;
19778;SDS011;10049;59.306;18.090;2023-04-06T13:27:49;0.20;;;0.20;;
19778;SDS011;10049;59.306;18.090;2023-04-06T13:30:21;0.40;;;0.40;;
19778;SDS011;10049;59.306;18.090;2023-04-06T13:32:50;0.52;;;0.43;;
19778;SDS011;10049;59.306;18.090;2023-04-06T13:35:21;0.40;;;0.40;;
19778;SDS011;10049;59.306;18.090;2023-04-06T13:37:48;0.85;;;0.50;;
19778;SDS011;10049;59.306;18.090;2023-04-06T13:40:30;0.50;;;0.50;;
19778;SDS011;10049;59.306;18.090;2023-04-06T13:43:00;0.30;;;0.30;;
19778;SDS011;10049;59.306;18.090;2023-04-06T13:45:30;2.05;;;0.80;;
19778;SDS011;10049;59.306;18.090;2023-04-06T13:48:06;0.75;;;0.63;;
19778;SDS011;10049;59.306;18.090;2023-04-06T13:50:35;0.40;;;0.40;;
19778;SDS011;10049;59.306;18.090;2023-04-06T13:53:03;0.95;;;0.55;;
19778;SDS011;10049;59.306;18.090;2023-04-06T13:55:32;0.70;;;0.60;;
19778;SDS011;10049;59.306;18.090;2023-04-06T13:58:01;0.50;;;0.50;;
19778;SDS011;10049;59.306;18.090;2023-04-06T14:00:36;0.90;;;0.60;;
19778;SDS011;10049;59.306;18.090;2023-04-06T14:03:05;1.67;;;0.57;;
19778;SDS011;10049;59.306;18.090;2023-04-06T14:05:35;0.50;;;0.50;;
19778;SDS011;10049;59.306;18.090;2023-04-06T14:08:03;2.88;;;0.68;;
19778;SDS011;10049;59.306;18.090;2023-04-06T14:10:36;0.70;;;0.50;;
19778;SDS011;10049;59.306;18.090;2023-04-06T14:13:07;0.30;;;0.30;;
19778;SDS011;10049;59.306;18.090;2023-04-06T14:15:37;0.60;;;0.50;;
19778;SDS011;10049;59.306;18.090;2023-04-06T14:18:06;4.95;;;0.40;;
19778;SDS011;10049;59.306;18.090;2023-04-06T14:20:36;0.50;;;0.50;;
19778;SDS011;10049;59.306;18.090;2023-04-06T14:23:05;2.28;;;0.60;;
19778;SDS011;10049;59.306;18.090;2023-04-06T14:25:33;1.42;;;0.80;;
19778;SDS011;10049;59.306;18.090;2023-04-06T14:28:03;1.20;;;0.73;;
19778;SDS011;10049;59.306;18.090;2023-04-06T14:30:31;0.98;;;0.57;;
19778;SDS011;10049;59.306;18.090;2023-04-06T14:33:03;0.40;;;0.40;;
19778;SDS011;10049;59.306;18.090;2023-04-06T14:35:33;0.50;;;0.50;;
19778;SDS011;10049;59.306;18.090;2023-04-06T14:38:02;0.65;;;0.60;;
19778;SDS011;10049;59.306;18.090;2023-04-06T14:40:34;0.65;;;0.60;;
19778;SDS011;10049;59.306;18.090;2023-04-06T14:43:03;0.40;;;0.35;;
19778;SDS011;10049;59.306;18.090;2023-04-06T14:45:35;0.40;;;0.40;;
19778;SDS011;10049;59.306;18.090;2023-04-06T14:48:09;0.47;;;0.40;;
19778;SDS011;10049;59.306;18.090;2023-04-06T14:50:51;0.30;;;0.30;;
19778;SDS011;10049;59.306;18.090;2023-04-06T14:53:23;0.30;;;0.30;;
19778;SDS011;10049;59.306;18.090;2023-04-06T14:55:53;0.50;;;0.50;;
19778;SDS011;10049;59.306;18.090;2023-04-06T14:58:22;0.30;;;0.30;;
19778;SDS011;10049;59.306;18.090;2023-04-06T15:00:56;0.40;;;0.40;;
19778;SDS011;10049;59.306;18.090;2023-04-06T15:03:26;0.73;;;0.55;;